Time;durP1;ratioP1;P1;durP2;ratioP2;P2;SDS_P1;SDS_P2;PMS_P1;PMS_P2;Temp;Humidity;BMP_temperature;BMP_pressure;BME280_temperature;BME280_humidity;BME280_pressure;Samples;Min_cycle;Max_cycle;Signal;HPM_P1;HPM_P2
2022/09/07 00:03:11;;;;;;;4.40;4.00;;;;;;;23.43;58.00;98566.13;7005025;28;20206;-80
2022/09/07 00:06:34;;;;;;;4.63;3.27;;;;;;;23.44;57.89;98581.53;7004454;28;20222;-80
2022/09/07 00:09:55;;;;;;;5.63;3.80;;;;;;;23.28;57.72;98569.06;7031219;28;20209;-80
2022/09/07 00:13:17;;;;;;;6.87;3.40;;;;;;;23.40;57.51;98558.47;7032336;28;20221;-80
2022/09/07 00:16:38;;;;;;;8.40;3.67;;;;;;;23.34;58.11;98550.56;7032538;28;20422;-80
2022/09/07 00:20:00;;;;;;;4.90;3.50;;;;;;;23.29;57.93;98554.19;7031928;28;20203;-80
2022/09/07 00:23:23;;;;;;;4.57;3.63;;;;;;;23.12;58.91;98536.50;7028008;28;20194;-80
2022/09/07 00:26:44;;;;;;;4.07;3.27;;;;;;;22.97;58.81;98540.22;7004551;28;20227;-80
2022/09/07 00:30:07;;;;;;;6.77;3.63;;;;;;;23.14;58.60;98537.81;7003905;28;20204;-80
2022/09/07 00:33:29;;;;;;;7.73;3.77;;;;;;;23.31;58.40;98534.66;7004430;28;20233;-80
2022/09/07 00:36:50;;;;;;;8.63;4.43;;;;;;;23.28;58.21;98525.03;7003756;28;20238;-79
2022/09/07 00:40:13;;;;;;;4.93;3.30;;;;;;;23.25;58.39;98513.81;7003447;28;20202;-80
2022/09/07 00:43:37;;;;;;;8.07;4.27;;;;;;;23.43;57.40;98515.78;7004865;28;20211;-80
2022/09/07 00:46:59;;;;;;;5.83;3.70;;;;;;;22.80;58.97;98487.63;7005478;28;20738;-80
2022/09/07 00:50:24;;;;;;;5.43;3.80;;;;;;;22.65;58.92;98463.03;7005566;28;20197;-80
2022/09/07 00:53:52;;;;;;;4.70;3.53;;;;;;;23.09;58.26;98471.06;7006146;28;20229;-80
2022/09/07 00:57:15;;;;;;;4.00;3.13;;;;;;;23.14;58.28;98471.00;7005633;28;20238;-80
2022/09/07 01:00:37;;;;;;;3.87;3.50;;;;;;;22.94;58.64;98485.81;7005276;28;20229;-80
2022/09/07 01:04:00;;;;;;;4.77;3.10;;;;;;;23.23;57.64;98463.75;7006105;28;20614;-80
2022/09/07 01:07:21;;;;;;;5.90;3.40;;;;;;;23.30;57.05;98469.72;7005336;28;20225;-80
2022/09/07 01:10:43;;;;;;;3.67;3.00;;;;;;;23.26;57.23;98466.72;7005871;28;20205;-80
2022/09/07 01:14:09;;;;;;;4.90;3.60;;;;;;;23.13;57.66;98464.66;7005495;28;20332;-80
2022/09/07 01:17:38;;;;;;;6.87;3.00;;;;;;;23.15;57.62;98467.13;7005145;28;20587;-80
2022/09/07 01:21:15;;;;;;;4.83;3.87;;;;;;;22.96;58.06;98458.81;7005633;28;20217;-80
2022/09/07 01:24:41;;;;;;;5.47;3.60;;;;;;;22.95;58.18;98472.88;7005911;28;20571;-80
2022/09/07 01:28:10;;;;;;;5.00;3.10;;;;;;;23.12;57.16;98449.28;7005148;28;20705;-80
2022/09/07 01:31:37;;;;;;;3.90;3.10;;;;;;;22.51;59.17;98458.50;7005938;28;20211;-80
2022/09/07 01:35:00;;;;;;;5.43;3.40;;;;;;;22.23;59.56;98473.00;7005103;28;20237;-80
2022/09/07 01:38:30;;;;;;;6.77;3.40;;;;;;;21.76;61.27;98475.56;7005336;28;20210;-79
2022/09/07 01:41:54;;;;;;;5.17;3.13;;;;;;;21.59;62.87;98489.66;7005096;28;20209;-80
2022/09/07 01:45:19;;;;;;;5.30;3.20;;;;;;;22.27;60.88;98494.16;7005528;28;20226;-80
2022/09/07 01:48:43;;;;;;;5.53;3.33;;;;;;;22.85;59.06;98489.50;7004180;28;20201;-80
2022/09/07 01:52:08;;;;;;;3.47;3.03;;;;;;;22.59;58.83;98493.63;7005217;28;20194;-80
2022/09/07 01:55:32;;;;;;;4.53;2.77;;;;;;;22.88;58.25;98503.47;7004879;28;20241;-80
2022/09/07 01:58:56;;;;;;;6.03;3.30;;;;;;;23.12;56.89;98490.53;7004598;28;20203;-80
2022/09/07 02:02:21;;;;;;;3.43;2.87;;;;;;;23.55;55.83;98508.72;7004347;28;20709;-80
2022/09/07 02:05:46;;;;;;;5.40;3.20;;;;;;;23.16;56.07;98452.25;7004514;28;20222;-80
2022/09/07 02:09:12;;;;;;;6.53;2.60;;;;;;;23.11;57.25;98515.56;7004144;28;20217;-80
2022/09/07 02:12:36;;;;;;;5.13;3.50;;;;;;;23.02;56.92;98487.91;7004466;28;20219;-80
2022/09/07 02:16:01;;;;;;;7.03;3.60;;;;;;;23.05;57.11;98503.84;7004389;28;20237;-80
2022/09/07 02:19:26;;;;;;;5.73;3.20;;;;;;;23.00;57.85;98519.56;7004226;28;20207;-80
2022/09/07 02:22:51;;;;;;;8.13;3.10;;;;;;;23.21;57.03;98518.25;7004473;28;20683;-80
2022/09/07 02:26:15;;;;;;;5.43;3.27;;;;;;;22.94;57.52;98515.22;7004057;28;20221;-80
2022/09/07 02:29:37;;;;;;;7.80;3.33;;;;;;;23.05;57.73;98520.34;7004497;28;20216;-79
2022/09/07 02:32:58;;;;;;;7.67;3.47;;;;;;;23.22;57.46;98531.72;7008788;28;20209;-80
2022/09/07 02:36:25;;;;;;;4.00;2.80;;;;;;;23.40;56.86;98525.44;7010138;28;20233;-80
2022/09/07 02:39:48;;;;;;;6.13;3.00;;;;;;;23.45;56.45;98527.31;7012399;28;20198;-80
2022/09/07 02:43:11;;;;;;;4.53;3.27;;;;;;;23.35;56.70;98524.66;7010751;28;20717;-80
2022/09/07 02:46:46;;;;;;;6.50;3.00;;;;;;;23.44;55.76;98531.19;7008610;28;20223;-80
2022/09/07 02:50:31;;;;;;;5.87;3.10;;;;;;;23.35;56.21;98513.66;7009074;28;20198;-80
2022/09/07 02:54:23;;;;;;;3.43;3.00;;;;;;;23.37;56.66;98527.97;7009480;28;20235;-80
2022/09/07 02:57:50;;;;;;;4.13;2.83;;;;;;;22.82;58.25;98545.88;6993769;28;20696;-80
2022/09/07 03:01:20;;;;;;;5.07;3.10;;;;;;;22.89;58.37;98557.34;7009984;28;20187;-80
2022/09/07 03:04:45;;;;;;;4.10;3.20;;;;;;;23.11;57.94;98546.66;7009525;28;20189;-79
2022/09/07 03:08:09;;;;;;;6.97;2.90;;;;;;;22.65;58.51;98539.19;7033524;28;20198;-80
2022/09/07 03:11:36;;;;;;;5.07;3.00;;;;;;;22.66;58.39;98529.81;7038075;28;20218;-80
2022/09/07 03:14:57;;;;;;;5.03;3.27;;;;;;;22.45;59.36;98556.66;7037235;28;20225;-79
2022/09/07 03:18:19;;;;;;;5.60;3.20;;;;;;;22.35;59.71;98551.19;7037270;28;20217;-79
2022/09/07 03:21:40;;;;;;;6.77;2.90;;;;;;;22.28;60.66;98544.38;7037750;28;20216;-80
2022/09/07 03:25:03;;;;;;;5.97;2.83;;;;;;;22.89;58.73;98560.09;7037268;28;20810;-79
2022/09/07 03:28:26;;;;;;;6.93;3.10;;;;;;;22.17;60.40;98553.81;7037652;28;20309;-80
2022/09/07 03:31:48;;;;;;;4.20;2.87;;;;;;;22.63;59.11;98566.94;7037055;28;20197;-80
2022/09/07 03:35:10;;;;;;;6.40;2.70;;;;;;;22.14;60.51;98541.47;7036924;28;20298;-80
2022/09/07 03:38:31;;;;;;;3.77;3.07;;;;;;;22.63;59.28;98564.19;7036845;28;20201;-80
2022/09/07 03:41:53;;;;;;;5.57;3.23;;;;;;;22.71;59.23;98571.00;7037857;28;20208;-80
2022/09/07 03:45:16;;;;;;;3.73;2.90;;;;;;;23.04;57.74;98565.44;7037594;28;20567;-80
2022/09/07 03:48:38;;;;;;;6.57;3.17;;;;;;;22.68;58.71;98558.66;7034922;28;20218;-80
2022/09/07 03:52:00;;;;;;;6.00;3.07;;;;;;;22.49;60.03;98554.97;7037005;28;20276;-80
2022/09/07 03:55:21;;;;;;;10.07;3.13;;;;;;;22.87;58.92;98564.25;7036841;28;20226;-80
2022/09/07 03:58:44;;;;;;;5.00;3.07;;;;;;;22.71;58.33;98565.50;7036172;28;20198;-80
2022/09/07 04:02:07;;;;;;;3.67;3.03;;;;;;;22.78;58.41;98572.28;7036999;28;20202;-80
2022/09/07 04:05:28;;;;;;;5.03;3.13;;;;;;;22.70;58.79;98561.94;7036239;28;20220;-79
2022/09/07 04:08:50;;;;;;;3.23;2.93;;;;;;;22.41;59.83;98562.97;7035870;28;20213;-79
2022/09/07 04:12:12;;;;;;;3.77;3.00;;;;;;;22.52;59.24;98564.56;7036193;28;20204;-80
2022/09/07 04:15:33;;;;;;;8.73;3.30;;;;;;;22.89;58.84;98575.78;7036052;28;20221;-79
2022/09/07 04:18:57;;;;;;;5.27;3.10;;;;;;;22.91;58.47;98573.56;7023289;28;20215;-80
2022/09/07 04:22:19;;;;;;;4.47;3.33;;;;;;;22.54;59.53;98552.16;7008357;28;20210;-80
2022/09/07 04:25:47;;;;;;;7.17;3.10;;;;;;;23.23;57.99;98574.63;7020111;28;20232;-81
2022/09/07 04:29:09;;;;;;;4.20;3.17;;;;;;;23.08;57.98;98572.00;6999319;28;20256;-79
2022/09/07 04:32:30;;;;;;;4.23;2.87;;;;;;;23.21;57.90;98570.53;7015318;28;20213;-80
2022/09/07 04:35:53;;;;;;;5.30;3.23;;;;;;;22.72;59.18;98584.44;7016808;28;20215;-79
2022/09/07 04:39:15;;;;;;;4.47;2.73;;;;;;;22.82;59.88;98591.78;7015403;28;20195;-78
2022/09/07 04:42:36;;;;;;;5.90;3.33;;;;;;;22.65;60.45;98592.22;7025773;28;20203;-79
2022/09/07 04:45:58;;;;;;;10.10;3.67;;;;;;;22.42;61.16;98592.91;7036931;28;20221;-80
2022/09/07 04:49:20;;;;;;;7.23;3.70;;;;;;;22.72;60.62;98578.94;7026127;28;20197;-79
2022/09/07 04:52:43;;;;;;;5.83;3.53;;;;;;;22.66;59.84;98543.56;7034611;28;20329;-79
2022/09/07 04:56:05;;;;;;;5.10;3.40;;;;;;;22.51;61.22;98568.41;7020053;28;20242;-79
2022/09/07 04:59:27;;;;;;;6.33;3.50;;;;;;;22.88;60.54;98585.13;7011573;28;20209;-79
2022/09/07 05:02:48;;;;;;;6.63;3.43;;;;;;;23.04;59.51;98581.94;7033005;28;20216;-80
2022/09/07 05:06:10;;;;;;;6.43;3.50;;;;;;;22.98;59.93;98585.03;7035402;28;20733;-79
2022/09/07 05:09:33;;;;;;;5.73;3.67;;;;;;;22.83;60.15;98582.44;7017541;28;20228;-79
2022/09/07 05:12:55;;;;;;;4.67;3.50;;;;;;;22.71;60.80;98579.25;7004468;28;20206;-79
2022/09/07 05:16:18;;;;;;;7.10;4.03;;;;;;;22.47;61.66;98578.34;7004971;28;20234;-79
2022/09/07 05:19:40;;;;;;;5.50;3.50;;;;;;;22.78;60.47;98561.28;7004697;28;20207;-79
2022/09/07 05:23:01;;;;;;;7.03;3.83;;;;;;;22.72;60.29;98550.66;7004666;28;20209;-79
2022/09/07 05:26:26;;;;;;;6.23;4.13;;;;;;;22.89;60.16;98581.28;7003911;28;20222;-79
2022/09/07 05:29:47;;;;;;;5.97;3.20;;;;;;;22.72;61.09;98569.91;7020965;28;20214;-79
2022/09/07 05:33:09;;;;;;;7.00;4.20;;;;;;;22.88;60.47;98576.88;7016574;28;20562;-80
2022/09/07 05:36:31;;;;;;;6.80;4.00;;;;;;;22.60;61.78;98572.19;7003427;28;20242;-80
2022/09/07 05:39:55;;;;;;;6.23;3.80;;;;;;;22.62;62.15;98583.72;7002805;28;20206;-79
2022/09/07 05:43:18;;;;;;;5.83;3.53;;;;;;;22.70;61.22;98583.09;7002591;28;20211;-80
2022/09/07 05:46:40;;;;;;;4.03;3.50;;;;;;;22.76;60.82;98571.78;7001950;28;20439;-80
2022/09/07 05:50:01;;;;;;;5.37;4.10;;;;;;;23.13;61.20;98585.69;7024279;28;20200;-79
2022/09/07 05:53:23;;;;;;;5.60;3.50;;;;;;;23.83;58.37;98592.34;7001995;28;20217;-80
2022/09/07 05:56:45;;;;;;;5.20;3.53;;;;;;;23.98;57.41;98572.88;7002038;28;20271;-80
2022/09/07 06:00:09;;;;;;;8.33;3.63;;;;;;;23.39;58.81;98589.84;7001367;28;20681;-80
2022/09/07 06:03:31;;;;;;;3.90;2.80;;;;;;;23.46;59.17;98584.81;7002223;28;20675;-80
2022/09/07 06:06:52;;;;;;;8.13;4.30;;;;;;;24.05;57.59;98598.13;7005723;28;20222;-80
2022/09/07 06:10:14;;;;;;;4.40;3.20;;;;;;;24.54;56.70;98587.47;7006710;28;20214;-80
2022/09/07 06:13:37;;;;;;;5.97;3.23;;;;;;;24.82;54.82;98550.59;7007948;28;20213;-81
2022/09/07 06:17:00;;;;;;;3.73;3.33;;;;;;;24.94;55.82;98600.59;7012836;28;20215;-81
2022/09/07 06:20:21;;;;;;;5.93;3.27;;;;;;;25.32;53.84;98605.69;7024067;28;20676;-80
2022/09/07 06:23:43;;;;;;;4.83;3.30;;;;;;;24.92;55.01;98600.91;7027657;28;20206;-81
2022/09/07 06:27:05;;;;;;;7.10;3.20;;;;;;;24.56;56.41;98608.09;7011732;28;20233;-80
2022/09/07 06:30:28;;;;;;;3.30;3.00;;;;;;;25.47;53.71;98588.84;7006881;28;20218;-80
2022/09/07 06:33:52;;;;;;;4.47;3.20;;;;;;;26.61;51.22;98606.81;7007621;28;20204;-80
2022/09/07 06:37:13;;;;;;;3.87;3.00;;;;;;;26.95;50.86;98592.44;7016211;28;20229;-81
2022/09/07 06:40:35;;;;;;;3.50;3.17;;;;;;;26.78;50.11;98554.38;7033946;28;20204;-80
2022/09/07 06:43:57;;;;;;;6.13;3.50;;;;;;;26.85;50.26;98587.94;7021097;28;20654;-80
2022/09/07 06:47:19;;;;;;;4.87;3.57;;;;;;;26.91;49.60;98589.47;7033299;28;20259;-80
2022/09/07 06:50:42;;;;;;;5.60;2.77;;;;;;;26.83;49.73;98562.56;7025539;28;20199;-81
2022/09/07 06:54:04;;;;;;;5.47;3.20;;;;;;;27.42;49.10;98592.53;7034898;28;20205;-78
2022/09/07 06:57:25;;;;;;;6.47;2.93;;;;;;;27.74;46.90;98586.66;7034724;28;20320;-81
2022/09/07 07:00:47;;;;;;;3.83;3.03;;;;;;;27.71;45.50;98561.53;7017014;28;20219;-80
2022/09/07 07:04:09;;;;;;;4.60;2.90;;;;;;;28.49;45.18;98562.16;7013231;28;20650;-81
2022/09/07 07:07:32;;;;;;;5.63;2.80;;;;;;;28.64;44.94;98542.25;7006060;28;20233;-81
2022/09/07 07:10:53;;;;;;;4.23;2.50;;;;;;;28.85;45.16;98586.81;7034489;28;20205;-80
2022/09/07 07:14:15;;;;;;;6.17;2.90;;;;;;;28.84;43.96;98555.44;7035009;28;20346;-82
2022/09/07 07:17:37;;;;;;;5.33;2.20;;;;;;;28.87;44.41;98581.72;7034315;28;20225;-79
2022/09/07 07:21:01;;;;;;;6.23;2.57;;;;;;;28.45;44.75;98577.84;7034307;28;20202;-80
2022/09/07 07:24:24;;;;;;;5.30;2.50;;;;;;;28.26;44.91;98568.19;7035783;28;20663;-78
2022/09/07 07:27:46;;;;;;;3.23;2.50;;;;;;;28.59;44.85;98580.44;7033828;28;20221;-79
2022/09/07 07:31:08;;;;;;;4.43;2.50;;;;;;;29.13;44.85;98575.00;7033255;28;20233;-80
2022/09/07 07:34:30;;;;;;;3.73;2.13;;;;;;;29.52;42.28;98588.59;7033739;28;20226;-80
2022/09/07 07:37:52;;;;;;;4.27;2.33;;;;;;;30.04;41.92;98591.97;7032071;28;20235;-79
2022/09/07 07:41:16;;;;;;;5.20;2.67;;;;;;;30.46;41.30;98591.69;7005901;28;20207;-79
2022/09/07 07:44:38;;;;;;;5.17;2.90;;;;;;;30.36;40.19;98602.44;7005517;28;20213;-79
2022/09/07 07:48:00;;;;;;;4.27;2.43;;;;;;;29.89;41.38;98615.59;7003481;28;20238;-80
2022/09/07 07:51:22;;;;;;;5.97;2.53;;;;;;;30.09;40.98;98614.88;7005516;28;20268;-80
2022/09/07 07:54:44;;;;;;;5.50;2.30;;;;;;;30.72;40.16;98616.56;7004614;28;20228;-79
2022/09/07 07:58:06;;;;;;;4.83;2.40;;;;;;;30.23;40.24;98623.78;7004697;28;20203;-80
2022/09/07 08:01:28;;;;;;;7.10;2.60;;;;;;;30.67;39.42;98620.34;7005656;28;20207;-80
2022/09/07 08:04:50;;;;;;;7.23;2.73;;;;;;;31.26;39.50;98619.00;7005306;28;20209;-80
2022/09/07 08:08:12;;;;;;;4.00;2.50;;;;;;;30.61;40.92;98632.03;7020648;28;20210;-79
2022/09/07 08:11:34;;;;;;;6.03;3.00;;;;;;;30.80;40.22;98624.84;7033089;28;20221;-79
2022/09/07 08:14:57;;;;;;;6.20;2.60;;;;;;;31.38;38.73;98619.03;7033483;28;20233;-80
2022/09/07 08:18:18;;;;;;;6.87;2.87;;;;;;;30.76;39.11;98601.63;7032820;28;20215;-80
2022/09/07 08:21:40;;;;;;;4.17;2.37;;;;;;;31.16;39.28;98638.09;7025306;28;20207;-77
2022/09/07 08:25:01;;;;;;;6.77;2.87;;;;;;;31.57;39.38;98626.88;7031495;28;20233;-79
2022/09/07 08:28:23;;;;;;;6.20;2.80;;;;;;;31.07;39.03;98626.25;7030632;28;20312;-78
2022/09/07 08:31:46;;;;;;;5.47;2.70;;;;;;;30.68;39.61;98635.09;7031413;28;20240;-77
2022/09/07 08:35:08;;;;;;;7.43;2.90;;;;;;;30.54;40.62;98637.31;7031173;28;20236;-77
2022/09/07 08:38:30;;;;;;;5.50;2.70;;;;;;;31.45;38.97;98598.97;7030415;28;20212;-77
2022/09/07 08:42:03;;;;;;;6.80;3.00;;;;;;;32.09;37.34;98614.75;7031602;28;20302;-77
2022/09/07 08:45:27;;;;;;;7.57;2.70;;;;;;;32.17;38.02;98640.88;7031225;28;20265;-77
2022/09/07 08:48:51;;;;;;;7.73;2.67;;;;;;;32.98;35.78;98610.72;7029463;28;20807;-77
2022/09/07 08:52:15;;;;;;;5.20;2.57;;;;;;;32.66;36.52;98643.28;7030920;28;20281;-77
2022/09/07 08:55:39;;;;;;;4.30;2.57;;;;;;;33.22;34.95;98627.38;7031276;28;20230;-78
2022/09/07 08:59:03;;;;;;;5.53;2.53;;;;;;;33.02;35.36;98629.22;7031605;28;20355;-76
2022/09/07 09:02:26;;;;;;;5.77;2.60;;;;;;;32.52;36.24;98625.28;7032730;28;20696;-78
2022/09/07 09:05:55;;;;;;;11.33;3.70;;;;;;;32.77;36.34;98629.69;7032825;28;20280;-78
2022/09/07 09:09:22;;;;;;;9.80;2.83;;;;;;;33.15;35.26;98596.44;7032851;28;20277;-78
2022/09/07 09:13:01;;;;;;;7.90;2.67;;;;;;;32.80;34.70;98624.19;7043961;28;20187;-77
2022/09/07 09:16:30;;;;;;;7.73;2.73;;;;;;;32.56;35.15;98604.69;7030878;28;20262;-78
2022/09/07 09:19:57;;;;;;;12.80;6.63;;;;;;;32.51;35.84;98618.88;7031220;28;20256;-78
2022/09/07 09:23:24;;;;;;;8.57;3.07;;;;;;;31.78;36.51;98611.69;7005556;28;20252;-78
2022/09/07 09:26:51;;;;;;;7.30;3.53;;;;;;;31.99;37.33;98618.00;7006190;28;20247;-78
2022/09/07 09:30:14;;;;;;;8.63;2.97;;;;;;;31.99;37.02;98612.41;7013909;28;20190;-78
2022/09/07 09:33:36;;;;;;;4.97;2.47;;;;;;;31.45;37.01;98590.59;7031316;28;20294;-78
2022/09/07 09:36:57;;;;;;;6.70;2.50;;;;;;;31.55;37.02;98592.97;7010025;28;20229;-78
2022/09/07 09:40:23;;;;;;;6.63;2.40;;;;;;;32.35;35.96;98584.50;7002002;28;20214;-78
2022/09/07 09:43:46;;;;;;;5.37;2.60;;;;;;;33.28;35.47;98589.63;7002151;28;20210;-78
2022/09/07 09:47:22;;;;;;;6.40;2.70;;;;;;;33.59;33.02;98553.31;7006102;28;20287;-78
2022/09/07 09:50:47;;;;;;;4.77;2.37;;;;;;;32.54;35.40;98567.13;7031776;28;20648;-80
2022/09/07 09:54:20;;;;;;;5.80;3.00;;;;;;;33.11;35.16;98582.38;7031285;28;20756;-80
2022/09/07 09:57:51;;;;;;;7.17;2.73;;;;;;;33.03;34.60;98577.78;7023404;28;20227;-79
2022/09/07 10:01:22;;;;;;;5.60;2.50;;;;;;;33.70;33.73;98582.34;7030469;28;20191;-80
2022/09/07 10:04:43;;;;;;;4.93;2.47;;;;;;;33.63;33.48;98557.84;7030696;28;20275;-80
2022/09/07 10:08:17;;;;;;;6.10;2.27;;;;;;;33.51;33.67;98574.72;7027188;28;20203;-80
2022/09/07 10:11:42;;;;;;;9.57;4.50;;;;;;;33.44;33.44;98568.91;7014348;28;20258;-79
2022/09/07 10:15:07;;;;;;;8.73;3.30;;;;;;;33.44;34.20;98554.13;7011751;28;20314;-80
2022/09/07 10:18:32;;;;;;;8.03;3.00;;;;;;;32.14;36.37;98569.84;7021705;28;20204;-79
2022/09/07 10:21:55;;;;;;;4.80;2.43;;;;;;;32.70;36.16;98554.84;7013908;28;20336;-80
2022/09/07 10:25:27;;;;;;;3.90;2.40;;;;;;;32.84;34.43;98566.44;7005747;28;20319;-80
2022/09/07 10:29:06;;;;;;;6.97;2.60;;;;;;;33.28;34.11;98550.50;7002877;28;20289;-82
2022/09/07 10:32:55;;;;;;;7.90;3.07;;;;;;;32.39;34.84;98559.47;7002915;28;20212;-80
2022/09/07 10:36:25;;;;;;;8.63;2.93;;;;;;;33.41;33.87;98532.47;7005472;28;20375;-81
2022/09/07 10:39:58;;;;;;;6.43;2.60;;;;;;;33.36;33.96;98529.97;7025368;28;20224;-78
2022/09/07 10:43:34;;;;;;;5.10;2.50;;;;;;;33.62;33.27;98538.63;7030736;28;20207;-80
2022/09/07 10:47:00;;;;;;;5.80;2.70;;;;;;;32.69;33.94;98525.28;7025881;28;20687;-80
2022/09/07 10:50:30;;;;;;;6.10;2.83;;;;;;;31.43;37.03;98524.06;7022598;28;20546;-79
2022/09/07 10:53:57;;;;;;;5.73;2.63;;;;;;;32.61;34.54;98519.84;7005977;28;20210;-78
2022/09/07 10:57:29;;;;;;;4.50;2.73;;;;;;;33.46;33.57;98521.84;7014624;28;20330;-79
2022/09/07 11:01:02;;;;;;;8.23;3.03;;;;;;;32.02;35.83;98521.63;7011381;28;20337;-79
2022/09/07 11:04:48;;;;;;;5.73;2.70;;;;;;;32.41;35.56;98518.06;7026014;28;20206;-79
2022/09/07 11:08:22;;;;;;;9.57;2.90;;;;;;;32.13;35.63;98511.63;7034466;28;20198;-79
2022/09/07 11:11:47;;;;;;;4.20;2.60;;;;;;;31.68;35.95;98513.72;7034290;28;20251;-79
2022/09/07 11:15:17;;;;;;;9.23;3.00;;;;;;;31.36;36.32;98511.88;7027071;28;20299;-80
2022/09/07 11:18:41;;;;;;;4.87;2.80;;;;;;;30.91;37.52;98497.94;7029061;28;20216;-79
2022/09/07 11:22:10;;;;;;;4.97;2.63;;;;;;;31.39;37.48;98492.50;7027821;28;20289;-80
2022/09/07 11:25:35;;;;;;;6.70;2.80;;;;;;;31.15;37.41;98506.38;7015214;28;20263;-79
2022/09/07 11:29:00;;;;;;;4.43;2.77;;;;;;;30.99;37.11;98502.63;7019891;28;20278;-81
2022/09/07 11:32:24;;;;;;;9.00;3.60;;;;;;;31.40;38.43;98513.63;7031455;28;20334;-79
2022/09/07 11:35:50;;;;;;;6.80;2.83;;;;;;;31.59;39.84;98490.72;7017372;28;20260;-79
2022/09/07 11:39:18;;;;;;;7.80;3.30;;;;;;;31.13;41.67;98486.38;7033432;28;20204;-78
2022/09/07 11:42:46;;;;;;;4.83;3.30;;;;;;;31.45;40.96;98493.06;7032852;28;20636;-79
2022/09/07 11:46:12;;;;;;;6.40;3.30;;;;;;;31.89;41.43;98494.94;7032742;28;20804;-78
2022/09/07 11:49:33;;;;;;;7.63;2.90;;;;;;;32.13;39.34;98486.50;7007725;28;20281;-79
2022/09/07 11:52:57;;;;;;;8.90;3.00;;;;;;;32.09;39.01;98508.72;7005663;28;20255;-78
2022/09/07 11:56:24;;;;;;;8.30;3.30;;;;;;;32.72;37.51;98495.84;7028070;28;20282;-79
2022/09/07 11:59:57;;;;;;;12.40;3.30;;;;;;;32.31;36.28;98499.84;7029387;28;20273;-79
2022/09/07 12:03:42;;;;;;;4.97;2.70;;;;;;;32.47;35.22;98474.75;7026488;28;20213;-79
2022/09/07 12:07:23;;;;;;;7.50;2.63;;;;;;;33.24;34.37;98491.69;7021299;28;20324;-79
2022/09/07 12:10:55;;;;;;;7.20;3.17;;;;;;;33.30;33.22;98479.09;7031999;28;20270;-79
2022/09/07 12:14:25;;;;;;;3.60;2.30;;;;;;;32.72;33.00;98451.16;7034013;28;20639;-79
2022/09/07 12:18:02;;;;;;;6.83;2.30;;;;;;;32.39;33.60;98405.97;7032540;28;20227;-79
2022/09/07 12:21:32;;;;;;;7.10;2.70;;;;;;;33.62;31.21;98451.91;7033055;28;20286;-79
2022/09/07 12:24:54;;;;;;;5.43;2.43;;;;;;;33.58;31.65;98460.22;7033660;28;20202;-79
2022/09/07 12:28:17;;;;;;;3.57;2.30;;;;;;;33.53;32.11;98452.13;7031012;28;20207;-79
2022/09/07 12:31:42;;;;;;;5.13;2.43;;;;;;;33.11;33.28;98442.66;7032241;28;20203;-79
2022/09/07 12:35:37;;;;;;;6.03;2.53;;;;;;;33.46;31.71;98451.13;7032623;28;20225;-79
2022/09/07 12:39:08;;;;;;;6.20;2.90;;;;;;;34.22;31.00;98457.72;7031501;28;20199;-79
2022/09/07 12:42:30;;;;;;;3.53;2.10;;;;;;;34.46;30.49;98443.44;7032832;28;20191;-79
2022/09/07 12:45:53;;;;;;;3.97;2.50;;;;;;;34.59;30.36;98442.09;7032738;28;20944;-79
2022/09/07 12:49:39;;;;;;;5.17;2.60;;;;;;;34.76;30.56;98443.66;7031515;28;20219;-79
2022/09/07 12:53:24;;;;;;;3.47;2.50;;;;;;;35.17;28.96;98432.41;7021929;28;20228;-79
2022/09/07 12:56:48;;;;;;;4.70;2.57;;;;;;;33.30;31.07;98422.41;7031663;28;20293;-79
2022/09/07 13:00:17;;;;;;;7.63;2.10;;;;;;;34.23;29.84;98417.34;7031375;28;20212;-79
2022/09/07 13:03:47;;;;;;;6.03;2.53;;;;;;;33.69;31.64;98429.72;7032074;28;20185;-79
2022/09/07 13:07:29;;;;;;;2.13;1.97;;;;;;;34.50;30.95;98435.13;7032677;28;20288;-79
2022/09/07 13:10:52;;;;;;;6.57;2.30;;;;;;;33.60;31.31;98423.53;7031731;28;20278;-79
2022/09/07 13:14:20;;;;;;;5.23;2.30;;;;;;;32.39;32.61;98429.13;7031804;28;20301;-79
2022/09/07 13:17:42;;;;;;;7.53;2.47;;;;;;;32.67;32.32;98426.28;7012758;28;20599;-79
2022/09/07 13:21:30;;;;;;;6.83;2.43;;;;;;;32.14;32.83;98419.16;7009761;28;20666;-79
2022/09/07 13:24:54;;;;;;;4.67;2.57;;;;;;;32.37;32.75;98414.69;7012502;28;20202;-79
2022/09/07 13:28:24;;;;;;;6.27;2.37;;;;;;;33.18;30.49;98420.47;7002287;28;20218;-79
2022/09/07 13:31:51;;;;;;;5.57;2.20;;;;;;;32.85;31.54;98408.84;7027405;28;20193;-79
2022/09/07 13:35:15;;;;;;;4.67;2.17;;;;;;;32.86;31.07;98410.47;7031813;28;20306;-79
2022/09/07 13:38:40;;;;;;;2.87;1.90;;;;;;;33.01;30.12;98401.28;7030839;28;20235;-79
2022/09/07 13:42:02;;;;;;;4.43;2.43;;;;;;;32.67;30.28;98392.78;7031713;28;20206;-79
2022/09/07 13:45:30;;;;;;;3.97;2.10;;;;;;;33.61;30.01;98380.41;7031728;28;20291;-79
2022/09/07 13:48:57;;;;;;;2.87;2.00;;;;;;;33.65;29.14;98365.31;7031671;28;20282;-79
2022/09/07 13:52:23;;;;;;;4.00;2.00;;;;;;;34.25;28.42;98383.41;7026595;28;20237;-79
2022/09/07 13:55:50;;;;;;;3.77;2.10;;;;;;;33.51;28.89;98380.94;7032054;28;20240;-79
2022/09/07 13:59:17;;;;;;;4.03;1.70;;;;;;;34.11;28.55;98372.72;7030679;28;20291;-79
2022/09/07 14:02:40;;;;;;;3.80;2.10;;;;;;;34.38;28.64;98371.69;7032106;28;20334;-79
2022/09/07 14:06:31;;;;;;;6.47;2.27;;;;;;;34.03;28.68;98373.75;7032294;28;20354;-80
2022/09/07 14:10:07;;;;;;;4.03;2.23;;;;;;;33.75;29.79;98375.09;6996390;28;20211;-80
2022/09/07 14:13:29;;;;;;;2.93;2.10;;;;;;;34.27;28.19;98361.47;7033339;28;20821;-80
2022/09/07 14:16:54;;;;;;;2.80;2.07;;;;;;;34.54;27.76;98358.38;7048189;28;20233;-80
2022/09/07 14:20:18;;;;;;;5.00;2.03;;;;;;;33.78;28.12;98354.84;7029590;28;20289;-80
2022/09/07 14:23:40;;;;;;;3.73;1.80;;;;;;;34.39;28.11;98355.69;7025048;28;20292;-79
2022/09/07 14:27:04;;;;;;;5.23;2.10;;;;;;;33.24;28.05;98349.16;7005771;28;20213;-80
2022/09/07 14:30:28;;;;;;;5.33;2.07;;;;;;;33.28;28.94;98350.09;7016860;28;20606;-80
2022/09/07 14:33:51;;;;;;;4.37;2.10;;;;;;;33.71;28.23;98351.84;7007558;28;20205;-80
2022/09/07 14:37:16;;;;;;;4.17;2.00;;;;;;;33.77;27.79;98353.19;7008427;28;20232;-81
2022/09/07 14:40:37;;;;;;;2.83;1.87;;;;;;;33.37;28.11;98339.50;7028757;28;20290;-79
2022/09/07 14:44:00;;;;;;;4.87;2.40;;;;;;;33.28;28.38;98333.31;7036361;28;20639;-79
2022/09/07 14:47:27;;;;;;;3.00;2.10;;;;;;;33.37;28.23;98347.88;7035663;28;20265;-79
2022/09/07 14:50:49;;;;;;;2.73;1.93;;;;;;;33.36;27.78;98314.72;7035285;28;20184;-79
2022/09/07 14:54:20;;;;;;;6.30;1.87;;;;;;;33.74;28.07;98348.31;7035683;28;20272;-80
2022/09/07 14:57:41;;;;;;;4.80;2.20;;;;;;;33.66;27.79;98335.38;7034579;28;20235;-79
2022/09/07 15:01:19;;;;;;;5.23;2.30;;;;;;;33.61;27.44;98341.25;7022590;28;20301;-79
2022/09/07 15:04:40;;;;;;;2.30;1.67;;;;;;;34.20;27.56;98320.09;7007851;28;20275;-79
2022/09/07 15:08:03;;;;;;;4.23;1.80;;;;;;;33.20;27.28;98306.34;7007487;28;20297;-79
2022/09/07 15:11:28;;;;;;;4.27;2.00;;;;;;;32.89;28.09;98323.16;7008158;28;20303;-79
2022/09/07 15:14:49;;;;;;;2.20;1.67;;;;;;;32.82;28.92;98322.16;7007957;28;20221;-79
2022/09/07 15:18:44;;;;;;;2.03;1.73;;;;;;;33.81;27.06;98314.91;7013156;28;20685;-79
2022/09/07 15:22:11;;;;;;;2.10;1.90;;;;;;;33.27;28.08;98322.50;7006976;28;20243;-79
2022/09/07 15:25:33;;;;;;;3.70;2.10;;;;;;;32.60;27.71;98284.50;7007812;28;20260;-79
2022/09/07 15:28:56;;;;;;;3.40;2.00;;;;;;;32.84;28.06;98306.66;7006264;28;20303;-80
2022/09/07 15:32:18;;;;;;;3.63;1.80;;;;;;;33.18;28.18;98324.63;7007229;28;20269;-79
2022/09/07 15:35:39;;;;;;;5.50;1.90;;;;;;;33.34;27.46;98322.66;7009989;28;20639;-80
2022/09/07 15:39:01;;;;;;;6.57;2.10;;;;;;;32.25;28.44;98319.06;7007886;28;20247;-79
2022/09/07 15:42:22;;;;;;;5.57;1.80;;;;;;;32.96;28.52;98294.59;7009317;28;20264;-79
2022/09/07 15:45:47;;;;;;;5.83;1.97;;;;;;;33.04;28.67;98313.97;7023531;28;20249;-79
2022/09/07 15:49:08;;;;;;;7.03;3.10;;;;;;;32.68;29.08;98293.88;7033120;28;20272;-79
2022/09/07 15:52:31;;;;;;;2.00;1.80;;;;;;;32.84;28.59;98311.47;7035562;28;20200;-80
2022/09/07 15:55:53;;;;;;;3.47;1.70;;;;;;;31.97;29.69;98293.16;7034910;28;20658;-78
2022/09/07 15:59:15;;;;;;;3.67;1.73;;;;;;;32.12;29.61;98315.50;7029114;28;20222;-79
2022/09/07 16:02:38;;;;;;;3.63;1.80;;;;;;;32.47;29.71;98318.44;7034086;28;20286;-79
2022/09/07 16:05:59;;;;;;;6.57;2.10;;;;;;;32.49;29.50;98325.28;7034235;28;20372;-81
2022/09/07 16:09:21;;;;;;;4.83;1.83;;;;;;;32.29;29.97;98317.16;7034157;28;20289;-79